KAGS/AGS METAR and TAF weather

Enter ICAO airport designator
Station Type Date Time Source
KAGS METAR 2019/12/06 13:53 UTC NOAA

KAGS 061353Z 00000KT 3SM BR SCT043 06/04 A3024 RMK AO2 SLP241 T00610039


Station Type Date Time Source
KAGS Decoded METAR 2019/12/06 13:53 UTC NOAA

AUGUSTA BUSH FIELD, GA, United States (KAGS) 33-22N 081-58W 44M
Dec 06, 2019 - 08:53 AM EST / 2019.12.06 1353 UTC
Wind: Calm:0
Visibility: 3 mile(s):0
Sky conditions: partly cloudy
Weather: mist
Temperature: 43.0 F (6.1 C)
Dew Point: 39.0 F (3.9 C)
Relative Humidity: 85%
Pressure (altimeter): 30.24 in. Hg (1024 hPa)
ob: KAGS 061353Z 00000KT 3SM BR SCT043 06/04 A3024 RMK AO2 SLP241 T00610039
cycle: 14

Station Type Date Time Source
KAGS TAF 2019/12/06 14:59 UTC NOAA

TAF
AMD KAGS 061359Z 0614/0712 VRB03KT 4SM BR SCT040 BKN120
TEMPO 0614/0615 1SM BR
FM061500 22005KT P6SM SCT050 BKN100
FM062200 VRB04KT P6SM SCT030 OVC070

Example: see airport list